Terminal Aerodrome Forecast
Issued by NWS Atlanta, GA

Home | Current Version | Previous Version | Text Only | Print | Product List | Glossary On
Versions: 1 2 3 4 5 6 7 8 9 10 11 12 13 14 15 16 17 18 19 20 21 22 23 24 25 26 27 28 29 30 31 32 33 34 35 36
129
FTUS42 KFFC 081127
TAFATL
TAF
KATL 081127Z 0812/0918 25005KT P6SM SCT050 BKN120
     FM081600 26009KT P6SM BKN045
     FM081800 27015G25KT P6SM SCT035 BKN050
      TEMPO 0818/0822 6SM -SHRA BKN035
     FM090000 30012G21KT P6SM OVC025 PROB30 0900/0906 6SM -SHSN
      BKN015=

USA.gov is the U.S. government's official web portal to all federal, state and local government web resources and services.